You are not logged in, Click here to log in
ICAO: ZBAA Country: 大陸北京市顺义区
Latitude: 40.0799 Longitude: 116.603
Total Arrivals: 40 Total Departures: 43
Latest Arrival: MU5159 (ZSSS-ZBAA)CHU. CHUHAO Latest Departure: FM9106 (ZBAA-ZSSS)CHU. CHUHAO
Scenery:
METAR : ZBAA 250500Z 18004MPS 110V250 CAVOK 31/15 Q1011 NOSIG

北京首都國際機場(PEK)